createdAt,value
2019-02-04T00:00:34.050Z,20.72
2019-02-04T00:05:38.156Z,20.70
2019-02-04T00:10:42.331Z,20.70
2019-02-04T00:15:46.491Z,20.67
2019-02-04T00:20:50.518Z,20.67
2019-02-04T00:25:54.827Z,20.64
2019-02-04T00:30:58.879Z,20.62
2019-02-04T00:36:03.064Z,20.62
2019-02-04T00:41:07.270Z,20.48
2019-02-04T00:46:11.367Z,20.48
2019-02-04T00:51:15.396Z,20.53
2019-02-04T00:56:19.477Z,20.51
2019-02-04T01:01:24.024Z,20.51
2019-02-04T01:06:28.344Z,20.45
2019-02-04T01:11:32.457Z,20.44
2019-02-04T01:16:36.553Z,20.42
2019-02-04T01:21:40.670Z,20.40
2019-02-04T01:26:44.715Z,20.39
2019-02-04T01:31:48.741Z,20.36
2019-02-04T01:36:53.300Z,20.35
2019-02-04T01:41:57.417Z,20.35
2019-02-04T01:47:01.509Z,20.22
2019-02-04T01:52:05.692Z,20.22
2019-02-04T01:57:09.793Z,20.27
2019-02-04T02:02:13.889Z,20.17
2019-02-04T02:07:18.008Z,20.24
2019-02-04T02:12:22.495Z,20.13
2019-02-04T02:17:26.802Z,20.12
2019-02-04T02:22:30.971Z,20.18
2019-02-04T02:27:35.080Z,20.17
2019-02-04T02:32:39.110Z,20.15
2019-02-04T02:37:43.292Z,20.05
2019-02-04T02:42:47.367Z,20.13
2019-02-04T02:47:51.850Z,20.12
2019-02-04T02:52:56.053Z,20.12
2019-02-04T02:58:00.217Z,20.09
2019-02-04T03:03:04.382Z,20.09
2019-02-04T03:08:08.471Z,20.04
2019-02-04T03:13:12.514Z,20.04
2019-02-04T03:18:16.669Z,20.01
2019-02-04T03:23:20.761Z,20.00
2019-02-04T03:28:24.776Z,20.00
2019-02-04T03:33:28.854Z,19.98
2019-02-04T03:38:32.952Z,19.97
2019-02-04T03:43:36.952Z,19.88
2019-02-04T03:48:41.038Z,19.88
2019-02-04T03:53:45.196Z,19.91
2019-02-04T03:58:49.397Z,19.91
2019-02-04T04:03:53.572Z,19.91
2019-02-04T04:08:57.693Z,19.90
2019-02-04T04:14:01.797Z,19.90
2019-02-04T04:19:05.899Z,19.90
2019-02-04T04:24:10.041Z,19.86
2019-02-04T04:29:14.217Z,19.87
2019-02-04T04:34:18.233Z,19.84
2019-02-04T04:39:22.346Z,19.84
2019-02-04T04:44:26.367Z,19.84
2019-02-04T04:49:30.412Z,19.84
2019-02-04T04:54:34.675Z,19.81
2019-02-04T04:59:38.738Z,19.77
2019-02-04T05:04:42.798Z,19.76
2019-02-04T05:09:46.794Z,19.73
2019-02-04T05:14:50.891Z,19.73
2019-02-04T05:19:54.902Z,19.73
2019-02-04T05:24:58.930Z,19.72
2019-02-04T05:30:03.163Z,19.72
2019-02-04T05:35:07.338Z,19.69
2019-02-04T05:40:13.190Z,19.69
2019-02-04T05:45:18.628Z,19.68
2019-02-04T05:50:22.673Z,19.66
2019-02-04T05:55:26.769Z,19.57
2019-02-04T06:00:40.092Z,19.65
2019-02-04T06:05:44.199Z,19.64
2019-02-04T06:10:48.206Z,19.63
2019-02-04T06:15:52.217Z,19.62
2019-02-04T06:20:56.605Z,19.61
2019-02-04T06:26:00.704Z,19.60
2019-02-04T06:31:04.805Z,19.60
2019-02-04T06:36:08.928Z,19.57
2019-02-04T06:41:13.034Z,19.48
2019-02-04T06:46:17.047Z,19.48
2019-02-04T06:51:21.124Z,19.55
2019-02-04T06:56:25.478Z,19.51
2019-02-04T07:01:29.495Z,19.50
2019-02-04T07:06:33.497Z,19.47
2019-02-04T07:11:37.661Z,19.48
2019-02-04T07:16:41.691Z,19.47
2019-02-04T07:21:45.702Z,19.46
2019-02-04T07:26:49.745Z,19.45
2019-02-04T07:31:53.837Z,19.44
2019-02-04T07:36:57.848Z,19.44
2019-02-04T07:42:01.877Z,19.45
2019-02-04T07:47:06.056Z,19.44
2019-02-04T07:52:10.226Z,19.44
2019-02-04T07:57:14.531Z,19.36
2019-02-04T08:02:18.617Z,19.45
2019-02-04T08:07:22.799Z,12.35
2019-02-04T08:12:27.065Z,11.28
2019-02-04T08:17:31.144Z,15.98
2019-02-04T08:22:35.212Z,18.54
2019-02-04T08:27:39.396Z,19.69
2019-02-04T08:32:43.568Z,20.34
2019-02-04T08:37:47.734Z,20.67
2019-02-04T08:42:51.778Z,20.64
2019-02-04T08:47:56.018Z,20.64
2019-02-04T08:53:00.219Z,20.58
2019-02-04T08:58:04.731Z,20.46
2019-02-04T09:03:08.826Z,20.47
2019-02-04T09:08:13.042Z,20.47
2019-02-04T09:13:17.154Z,20.31
2019-02-04T09:18:21.315Z,20.14
2019-02-04T09:23:25.503Z,20.27
2019-02-04T09:28:30.032Z,20.27
2019-02-04T09:33:34.266Z,20.79
2019-02-04T09:38:38.275Z,20.90
2019-02-04T09:43:42.469Z,20.83
2019-02-04T09:48:46.471Z,20.83
2019-02-04T09:53:50.503Z,20.55
2019-02-04T09:58:54.536Z,20.67
2019-02-04T10:03:58.645Z,18.37
2019-02-04T10:09:02.838Z,18.14
2019-02-04T10:14:07.115Z,19.40
2019-02-04T10:19:11.144Z,19.72
2019-02-04T10:24:15.390Z,19.77
2019-02-04T10:29:19.618Z,19.79
2019-02-04T10:34:23.826Z,19.79
2019-02-04T10:39:27.866Z,19.79
2019-02-04T10:44:32.041Z,19.79
2019-02-04T10:49:36.420Z,19.79
2019-02-04T10:54:40.572Z,19.79
2019-02-04T10:59:44.652Z,19.73
2019-02-04T11:04:48.750Z,19.73
2019-02-04T11:09:52.943Z,19.79
2019-02-04T11:14:57.106Z,19.79
2019-02-04T11:20:01.301Z,19.79
2019-02-04T11:25:06.849Z,19.79
2019-02-04T11:30:17.053Z,19.75
2019-02-04T11:35:21.208Z,19.74
2019-02-04T11:40:36.507Z,19.74
2019-02-04T11:45:40.885Z,19.79
2019-02-04T11:50:45.164Z,19.79
2019-02-04T11:55:49.600Z,19.82
2019-02-04T12:00:53.889Z,19.84
2019-02-04T12:05:57.997Z,19.76
2019-02-04T12:11:09.771Z,19.83
2019-02-04T12:16:14.121Z,19.81
2019-02-04T12:21:21.608Z,19.79
2019-02-04T12:26:24.717Z,19.79
2019-02-04T12:31:29.000Z,19.79
2019-02-04T12:36:33.137Z,19.81
2019-02-04T12:41:37.239Z,19.83
2019-02-04T12:46:41.491Z,19.80
2019-02-04T12:51:45.582Z,19.87
2019-02-04T12:56:49.610Z,19.89
2019-02-04T13:01:53.747Z,19.93
2019-02-04T13:06:57.860Z,19.88
2019-02-04T13:12:01.997Z,19.97
2019-02-04T13:17:06.283Z,19.99
2019-02-04T13:22:10.760Z,20.01
2019-02-04T13:27:14.904Z,19.95
2019-02-04T13:32:19.014Z,20.04
2019-02-04T13:37:23.144Z,20.04
2019-02-04T13:42:27.284Z,20.07
2019-02-04T13:47:31.414Z,20.08
2019-02-04T13:52:35.542Z,20.60
2019-02-04T13:57:40.048Z,21.20
2019-02-04T14:02:44.247Z,21.20
2019-02-04T14:07:48.472Z,21.56
2019-02-04T14:12:52.669Z,21.51
2019-02-04T14:17:56.844Z,21.44
2019-02-04T14:23:00.983Z,21.27
2019-02-04T14:28:05.528Z,21.31
2019-02-04T14:33:10.175Z,21.21
2019-02-04T14:38:14.369Z,19.49
2019-02-04T14:43:28.716Z,20.30
2019-02-04T14:49:02.559Z,20.53
2019-02-04T14:54:55.119Z,20.58
2019-02-04T15:00:20.369Z,20.78
2019-02-04T15:05:55.840Z,21.19
2019-02-04T15:11:17.677Z,21.21
2019-02-04T15:16:59.953Z,21.09
2019-02-04T15:22:48.485Z,20.98
2019-02-04T15:28:03.269Z,20.75
2019-02-04T15:33:27.861Z,20.66
2019-02-04T15:38:41.260Z,20.66
2019-02-04T15:44:10.520Z,20.73
2019-02-04T15:50:06.084Z,20.71
2019-02-04T15:55:13.774Z,20.55
2019-02-04T16:00:18.426Z,20.59
2019-02-04T16:05:22.685Z,20.91
2019-02-04T16:10:26.860Z,21.13
2019-02-04T16:15:30.976Z,21.08
2019-02-04T16:20:35.434Z,21.00
2019-02-04T16:25:39.717Z,20.87
2019-02-04T16:30:43.950Z,20.83
2019-02-04T16:35:48.013Z,20.84
2019-02-04T16:40:52.252Z,20.84
2019-02-04T16:45:56.629Z,20.58
2019-02-04T16:51:11.431Z,20.69
2019-02-04T16:56:07.576Z,20.66
2019-02-04T17:01:11.964Z,20.71
2019-02-04T17:06:16.239Z,20.73
2019-02-04T17:11:20.487Z,21.38
2019-02-04T17:16:24.639Z,21.38
2019-02-04T17:21:28.886Z,22.17
2019-02-04T17:26:33.076Z,22.33
2019-02-04T17:31:37.300Z,22.39
2019-02-04T17:36:41.663Z,22.31
2019-02-04T17:41:46.082Z,22.35
2019-02-04T17:46:50.210Z,22.27
2019-02-04T17:51:55.136Z,22.18
2019-02-04T17:56:59.748Z,22.18
2019-02-04T18:02:04.369Z,22.19
2019-02-04T18:07:08.672Z,22.33
2019-02-04T18:12:13.434Z,22.40
2019-02-04T18:17:18.266Z,22.40
2019-02-04T18:22:23.032Z,22.41
2019-02-04T18:27:28.643Z,22.41
2019-02-04T18:32:34.513Z,22.18
2019-02-04T18:42:43.594Z,22.35
2019-02-04T18:47:50.328Z,22.47
2019-02-04T18:52:56.438Z,22.47
2019-02-04T18:58:03.363Z,22.49
2019-02-04T19:03:16.977Z,22.42
2019-02-04T19:08:15.597Z,22.25
2019-02-04T19:13:20.466Z,22.27
2019-02-04T19:18:26.014Z,22.22
2019-02-04T19:23:31.135Z,22.43
2019-02-04T19:28:37.546Z,22.32
2019-02-04T19:33:43.347Z,22.51
2019-02-04T19:38:50.201Z,22.51
2019-02-04T19:43:57.025Z,22.29
2019-02-04T19:49:03.520Z,22.16
2019-02-04T19:54:20.926Z,21.95
2019-02-04T19:59:21.174Z,21.93
2019-02-04T20:04:27.077Z,22.06
2019-02-04T20:09:33.763Z,22.19
2019-02-04T20:14:40.328Z,22.19
2019-02-04T20:19:46.667Z,21.96
2019-02-04T20:24:52.828Z,21.97
2019-02-04T20:29:58.973Z,21.84
2019-02-04T20:35:06.159Z,21.84
2019-02-04T20:40:14.469Z,21.67
2019-02-04T20:45:20.763Z,21.48
2019-02-04T20:50:35.025Z,21.46
2019-02-04T20:55:41.499Z,21.33
2019-02-04T21:00:47.459Z,21.34
2019-02-04T21:05:53.300Z,21.27
2019-02-04T21:10:58.482Z,21.14
2019-02-04T21:16:03.949Z,21.14
2019-02-04T21:21:09.359Z,21.37
2019-02-04T21:26:14.523Z,21.41
2019-02-04T21:31:19.224Z,21.42
2019-02-04T21:36:23.657Z,21.44
2019-02-04T21:41:27.923Z,21.39
2019-02-04T21:46:32.410Z,21.39
2019-02-04T21:51:36.476Z,21.39
2019-02-04T21:56:40.792Z,21.33
2019-02-04T22:01:44.956Z,21.39
2019-02-04T22:06:49.008Z,21.36
2019-02-04T22:11:53.425Z,21.36
2019-02-04T22:16:57.499Z,21.35
2019-02-04T22:22:01.552Z,21.35
2019-02-04T22:27:05.978Z,21.29
2019-02-04T22:32:10.167Z,21.37
2019-02-04T22:37:14.483Z,21.37
2019-02-04T22:42:18.630Z,21.33
2019-02-04T22:47:22.770Z,21.35
2019-02-04T22:52:26.833Z,21.33
2019-02-04T22:57:30.877Z,21.31
2019-02-04T23:02:35.133Z,21.31
2019-02-04T23:07:39.368Z,21.28
2019-02-04T23:12:43.690Z,21.28
2019-02-04T23:17:47.829Z,21.25
2019-02-04T23:22:51.986Z,21.25
2019-02-04T23:27:56.104Z,21.23
2019-02-04T23:33:00.314Z,21.14
2019-02-04T23:38:06.126Z,21.20
2019-02-04T23:43:10.331Z,21.19
2019-02-04T23:48:14.835Z,21.17
2019-02-04T23:53:18.874Z,21.16
2019-02-04T23:58:22.935Z,21.14
